Time;durP1;ratioP1;P1;durP2;ratioP2;P2;SDS_P1;SDS_P2;PMS_P1;PMS_P2;Temp;Humidity;BMP_temperature;BMP_pressure;BME280_temperature;BME280_humidity;BME280_pressure;Samples;Min_cycle;Max_cycle;Signal;HPM_P1;HPM_P2
2021/08/19 00:01:13;;;;;;;11.10;4.37;;;;;;;18.91;67.53;100210.44;1673844;83;21063;-64
2021/08/19 00:03:39;;;;;;;8.68;5.08;;;;;;;18.88;67.92;100199.31;1677282;83;22673;-64
2021/08/19 00:06:06;;;;;;;8.40;5.03;;;;;;;18.85;67.87;100204.48;1703926;82;21043;-64
2021/08/19 00:08:32;;;;;;;8.30;4.22;;;;;;;18.80;67.60;100205.50;1673417;83;21564;-63
2021/08/19 00:11:00;;;;;;;6.17;3.98;;;;;;;18.69;67.94;100197.45;1704114;82;21311;-65
2021/08/19 00:13:28;;;;;;;7.22;4.22;;;;;;;18.61;68.20;100202.85;1708901;82;21043;-64
2021/08/19 00:15:56;;;;;;;6.67;3.45;;;;;;;18.55;68.04;100199.56;1680598;82;21087;-64
2021/08/19 00:18:23;;;;;;;8.08;4.70;;;;;;;18.57;68.18;100202.87;1677499;83;21032;-63
2021/08/19 00:20:50;;;;;;;7.83;3.95;;;;;;;18.58;68.37;100209.87;1678374;83;21126;-65
2021/08/19 00:23:17;;;;;;;6.05;3.85;;;;;;;18.57;68.49;100221.52;1708307;83;21086;-64
2021/08/19 00:25:45;;;;;;;6.22;3.85;;;;;;;18.56;68.65;100223.87;1709350;82;21067;-64
2021/08/19 00:28:11;;;;;;;11.85;4.22;;;;;;;18.58;68.51;100220.52;1708377;82;21110;-64
2021/08/19 00:30:38;;;;;;;9.08;4.65;;;;;;;18.64;68.11;100210.46;1706237;82;21055;-63
2021/08/19 00:33:05;;;;;;;8.43;4.20;;;;;;;18.68;67.79;100207.78;1708057;82;21054;-66
2021/08/19 00:35:32;;;;;;;7.30;3.87;;;;;;;18.69;67.68;100200.13;1673265;83;22481;-64
2021/08/19 00:37:58;;;;;;;6.92;4.50;;;;;;;18.70;67.61;100202.27;1662203;84;21128;-65
2021/08/19 00:40:24;;;;;;;7.72;4.60;;;;;;;18.66;67.51;100204.47;1665171;84;21756;-66
2021/08/19 00:42:51;;;;;;;6.40;3.72;;;;;;;18.65;67.54;100204.14;1663072;84;21088;-64
2021/08/19 00:45:20;;;;;;;6.97;4.15;;;;;;;18.69;67.58;100196.61;1664381;84;21803;-64
2021/08/19 00:47:46;;;;;;;7.80;4.22;;;;;;;18.73;67.47;100196.07;1639916;84;21598;-64
2021/08/19 00:50:12;;;;;;;7.15;4.35;;;;;;;18.72;67.28;100202.40;1643108;85;21041;-64
2021/08/19 00:52:41;;;;;;;8.25;3.70;;;;;;;18.71;67.32;100211.91;1691726;83;21108;-64
2021/08/19 00:55:11;;;;;;;11.00;4.15;;;;;;;18.71;67.41;100214.57;1647111;83;21115;-65
2021/08/19 00:57:39;;;;;;;6.72;3.77;;;;;;;18.70;67.51;100216.41;1618100;86;21604;-65
2021/08/19 01:00:09;;;;;;;6.35;3.27;;;;;;;18.69;67.41;100216.11;1706724;83;21043;-64
2021/08/19 01:02:39;;;;;;;6.05;3.17;;;;;;;18.71;67.31;100214.09;1711596;83;21071;-65
2021/08/19 01:05:08;;;;;;;6.87;3.98;;;;;;;18.73;67.32;100211.25;1707162;82;21148;-66
2021/08/19 01:07:35;;;;;;;6.28;3.62;;;;;;;18.75;67.30;100204.70;1707955;82;21091;-64
2021/08/19 01:10:04;;;;;;;7.72;3.72;;;;;;;18.74;67.54;100208.41;1704928;82;21055;-63
2021/08/19 01:12:31;;;;;;;6.83;3.80;;;;;;;18.70;67.64;100206.27;1677789;83;21566;-63
2021/08/19 01:14:57;;;;;;;5.83;3.35;;;;;;;18.67;67.54;100220.77;1703496;82;21136;-64
2021/08/19 01:17:25;;;;;;;7.67;3.75;;;;;;;18.61;67.43;100232.16;1697971;82;21785;-66
2021/08/19 01:19:53;;;;;;;6.97;3.83;;;;;;;18.53;67.53;100234.38;1697295;82;21018;-64
2021/08/19 01:22:24;;;;;;;7.20;4.10;;;;;;;18.49;67.39;100242.89;1705702;82;21063;-65
2021/08/19 01:24:51;;;;;;;5.78;3.15;;;;;;;18.40;67.62;100252.79;1701951;82;21127;-63
2021/08/19 01:27:20;;;;;;;5.87;3.33;;;;;;;18.30;67.88;100256.19;1703768;82;21593;-64
2021/08/19 01:29:47;;;;;;;9.60;4.12;;;;;;;18.18;68.13;100264.58;1703328;82;21102;-64
2021/08/19 01:32:13;;;;;;;7.83;4.05;;;;;;;18.11;68.63;100262.80;1704874;82;21067;-66
2021/08/19 01:34:40;;;;;;;7.78;3.95;;;;;;;18.09;68.72;100262.12;1699361;82;22182;-63
2021/08/19 01:37:06;;;;;;;5.55;3.42;;;;;;;18.12;68.60;100261.78;1702261;83;21077;-64
2021/08/19 01:39:34;;;;;;;7.17;3.17;;;;;;;18.18;68.06;100265.09;1643509;85;21135;-64
2021/08/19 01:42:01;;;;;;;6.22;3.42;;;;;;;18.19;68.15;100252.11;1669948;84;21057;-64
2021/08/19 01:44:27;;;;;;;7.72;3.95;;;;;;;18.18;68.18;100243.78;1704713;82;21112;-64
2021/08/19 01:46:57;;;;;;;5.97;3.60;;;;;;;18.17;68.32;100238.12;1706120;82;21521;-64
2021/08/19 01:49:27;;;;;;;8.00;4.17;;;;;;;18.19;68.29;100236.95;1696409;82;21056;-64
2021/08/19 01:51:53;;;;;;;6.45;4.00;;;;;;;18.23;67.81;100225.95;1716454;81;21012;-65
2021/08/19 01:54:23;;;;;;;7.28;3.47;;;;;;;18.20;67.69;100216.47;1711986;82;21060;-63
2021/08/19 01:56:49;;;;;;;6.28;3.35;;;;;;;18.22;67.33;100214.45;1740258;80;21062;-64
2021/08/19 01:59:17;;;;;;;6.53;3.62;;;;;;;18.22;67.14;100209.64;1735570;80;21121;-64
2021/08/19 02:01:44;;;;;;;6.33;3.83;;;;;;;18.15;67.11;100210.33;1739809;80;21015;-63
2021/08/19 02:04:11;;;;;;;5.22;2.80;;;;;;;18.10;67.38;100213.20;1709003;82;21117;-63
2021/08/19 02:06:38;;;;;;;6.58;3.37;;;;;;;18.06;67.81;100208.74;1704212;82;21908;-63
2021/08/19 02:09:06;;;;;;;5.58;3.25;;;;;;;18.07;67.30;100210.41;1735699;80;21046;-64
2021/08/19 02:11:34;;;;;;;7.45;3.47;;;;;;;18.04;67.41;100220.56;1701206;82;21059;-63
2021/08/19 02:14:00;;;;;;;6.12;3.30;;;;;;;17.96;67.26;100214.28;1700717;82;21089;-65
2021/08/19 02:16:28;;;;;;;8.55;3.10;;;;;;;17.90;67.34;100220.81;1704575;82;21051;-64
2021/08/19 02:18:56;;;;;;;6.75;3.12;;;;;;;17.88;67.27;100217.50;1734850;80;22163;-64
2021/08/19 02:21:22;;;;;;;7.20;3.30;;;;;;;17.88;67.27;100214.33;1707418;82;21071;-65
2021/08/19 02:23:50;;;;;;;8.58;3.52;;;;;;;17.88;67.21;100211.66;1738456;80;21137;-64
2021/08/19 02:26:16;;;;;;;6.55;3.42;;;;;;;17.86;67.40;100210.98;1735888;80;21082;-64
2021/08/19 02:28:44;;;;;;;5.97;2.95;;;;;;;17.82;67.89;100211.84;1737770;80;21105;-64
2021/08/19 02:31:10;;;;;;;6.50;3.30;;;;;;;17.80;68.30;100209.02;1736711;80;21979;-65
2021/08/19 02:33:36;;;;;;;8.10;3.87;;;;;;;17.80;68.78;100213.00;1737711;80;21050;-64
2021/08/19 02:36:03;;;;;;;6.35;3.22;;;;;;;17.86;68.64;100210.16;1735410;80;21051;-64
2021/08/19 02:38:30;;;;;;;6.83;3.60;;;;;;;17.90;68.64;100215.48;1736402;81;21067;-64
2021/08/19 02:40:56;;;;;;;7.22;3.50;;;;;;;17.90;68.27;100216.30;1700330;82;21585;-64
2021/08/19 02:43:23;;;;;;;9.95;3.37;;;;;;;17.89;68.66;100222.65;1735297;80;21155;-64
2021/08/19 02:45:49;;;;;;;5.40;2.33;;;;;;;17.87;68.49;100233.13;1740198;80;22489;-64
2021/08/19 02:48:15;;;;;;;6.83;3.00;;;;;;;17.84;68.57;100243.61;1740905;80;21091;-65
2021/08/19 02:50:43;;;;;;;9.88;3.25;;;;;;;17.88;68.48;100251.59;1732951;80;21923;-66
2021/08/19 02:53:10;;;;;;;6.47;2.77;;;;;;;17.91;68.20;100252.58;1738434;80;21126;-66
2021/08/19 02:55:36;;;;;;;5.45;3.02;;;;;;;17.92;68.31;100251.59;1732639;80;22767;-65
2021/08/19 02:58:03;;;;;;;8.38;3.20;;;;;;;17.92;68.42;100252.92;1733718;80;21095;-67
2021/08/19 03:00:30;;;;;;;6.28;3.40;;;;;;;17.91;68.58;100256.57;1735696;80;21099;-64
2021/08/19 03:02:56;;;;;;;6.12;3.75;;;;;;;17.89;68.76;100257.25;1737697;80;21553;-64
2021/08/19 03:05:23;;;;;;;6.40;3.50;;;;;;;17.93;68.59;100263.05;1698104;80;21055;-65
2021/08/19 03:07:49;;;;;;;7.72;3.35;;;;;;;17.96;68.74;100264.05;1707262;82;21105;-66
2021/08/19 03:10:16;;;;;;;6.75;3.62;;;;;;;18.00;68.64;100256.02;1729390;80;21538;-66
2021/08/19 03:12:44;;;;;;;4.97;2.77;;;;;;;18.08;68.40;100263.15;1702540;82;21023;-63
2021/08/19 03:15:11;;;;;;;6.05;3.58;;;;;;;18.09;68.12;100266.97;1700335;82;21002;-66
2021/08/19 03:17:37;;;;;;;8.63;3.42;;;;;;;18.09;68.03;100262.12;1707761;82;21035;-62
2021/08/19 03:20:07;;;;;;;7.30;3.35;;;;;;;18.11;68.13;100268.95;1701186;82;22004;-62
2021/08/19 03:22:34;;;;;;;5.22;3.20;;;;;;;18.13;67.93;100268.78;1742397;80;20998;-63
2021/08/19 03:25:03;;;;;;;7.20;4.00;;;;;;;18.18;67.87;100276.55;1730676;82;21079;-65
2021/08/19 03:27:31;;;;;;;7.47;3.90;;;;;;;18.26;67.64;100274.87;1705678;82;20995;-65
2021/08/19 03:29:58;;;;;;;6.55;3.72;;;;;;;18.31;67.62;100275.17;1737827;81;21545;-64
2021/08/19 03:32:26;;;;;;;8.78;4.40;;;;;;;18.36;67.71;100284.28;1740959;80;20995;-67
2021/08/19 03:34:54;;;;;;;6.22;3.47;;;;;;;18.37;67.47;100288.62;1702508;82;21111;-65
2021/08/19 03:37:20;;;;;;;10.60;5.00;;;;;;;18.36;67.03;100290.95;1729783;80;21517;-65
2021/08/19 03:39:47;;;;;;;8.20;3.80;;;;;;;18.38;67.17;100288.92;1711343;82;21515;-64
2021/08/19 03:42:16;;;;;;;7.72;4.90;;;;;;;18.42;67.12;100284.58;1736151;81;21117;-64
2021/08/19 03:44:43;;;;;;;9.13;4.95;;;;;;;18.48;67.19;100284.70;1736865;80;21811;-64
2021/08/19 03:47:11;;;;;;;12.45;7.80;;;;;;;18.53;66.96;100282.34;1678489;83;21115;-64
2021/08/19 03:49:39;;;;;;;9.13;5.42;;;;;;;18.52;66.51;100277.19;1676724;83;21116;-67
2021/08/19 03:52:06;;;;;;;11.55;7.80;;;;;;;18.48;66.68;100274.56;1674892;83;20991;-64
2021/08/19 03:54:33;;;;;;;10.85;6.72;;;;;;;18.49;67.21;100275.72;1703026;83;21059;-64
2021/08/19 03:56:59;;;;;;;7.72;3.92;;;;;;;18.54;67.24;100276.50;1702114;82;21131;-65
2021/08/19 03:59:26;;;;;;;7.12;4.03;;;;;;;18.56;66.37;100274.00;1705604;83;21063;-65
2021/08/19 04:01:52;;;;;;;8.70;5.45;;;;;;;18.55;66.09;100277.66;1704841;82;21082;-64
2021/08/19 04:04:19;;;;;;;7.28;3.27;;;;;;;18.48;66.16;100278.56;1737679;80;21092;-65
2021/08/19 04:06:45;;;;;;;6.75;3.62;;;;;;;18.43;66.34;100283.59;1740323;80;21070;-67
2021/08/19 04:09:12;;;;;;;10.45;6.22;;;;;;;18.38;66.11;100280.94;1705452;80;21886;-65
2021/08/19 04:11:40;;;;;;;10.18;3.67;;;;;;;18.35;65.76;100277.28;1738904;80;21517;-65
2021/08/19 04:14:08;;;;;;;11.45;5.58;;;;;;;18.35;65.67;100278.62;1712255;80;21083;-64
2021/08/19 04:16:34;;;;;;;6.47;3.77;;;;;;;18.40;65.84;100278.61;1739354;80;22328;-63
2021/08/19 04:19:02;;;;;;;6.97;2.75;;;;;;;18.44;65.65;100278.56;1739620;82;21390;-64
2021/08/19 04:21:29;;;;;;;6.72;3.77;;;;;;;18.44;65.40;100279.90;1740994;80;21190;-64
2021/08/19 04:23:57;;;;;;;6.40;3.90;;;;;;;18.41;65.48;100281.58;1741167;80;21035;-63
2021/08/19 04:26:26;;;;;;;5.05;2.70;;;;;;;18.42;65.54;100279.25;1737294;80;21055;-63
2021/08/19 04:28:53;;;;;;;9.58;3.40;;;;;;;18.42;65.57;100285.91;1736978;81;21128;-67
2021/08/19 04:31:19;;;;;;;5.65;2.80;;;;;;;18.46;65.23;100284.06;1738641;80;21046;-64
2021/08/19 04:33:45;;;;;;;5.85;2.40;;;;;;;18.53;64.49;100273.52;1704205;82;21164;-64
2021/08/19 04:36:12;;;;;;;6.67;2.37;;;;;;;18.55;63.63;100268.84;1731674;80;21071;-63
2021/08/19 04:38:39;;;;;;;4.78;2.87;;;;;;;18.51;63.76;100267.55;1714842;82;21012;-66
2021/08/19 04:41:05;;;;;;;6.42;3.00;;;;;;;18.49;63.69;100274.87;1708538;82;21475;-67
2021/08/19 04:43:33;;;;;;;8.38;3.90;;;;;;;18.47;63.48;100279.04;1734296;80;21638;-64
2021/08/19 04:46:00;;;;;;;8.10;3.17;;;;;;;18.48;63.71;100286.55;1721195;80;21105;-65
2021/08/19 04:48:26;;;;;;;7.37;3.33;;;;;;;18.50;63.54;100280.53;1708078;82;22027;-63
2021/08/19 04:50:53;;;;;;;5.80;3.08;;;;;;;18.57;63.16;100288.14;1735866;81;21083;-65
2021/08/19 04:53:20;;;;;;;7.30;3.55;;;;;;;18.58;63.26;100288.47;1731658;81;21087;-64
2021/08/19 04:55:46;;;;;;;5.95;3.55;;;;;;;18.57;62.62;100288.14;1727275;81;21098;-64
2021/08/19 04:58:13;;;;;;;8.43;3.80;;;;;;;18.59;62.75;100294.63;1729554;81;21033;-65
2021/08/19 05:00:40;;;;;;;7.08;4.05;;;;;;;18.57;62.73;100297.46;1733007;82;20984;-64
2021/08/19 05:03:06;;;;;;;5.60;3.22;;;;;;;18.56;62.45;100294.49;1713779;82;21589;-66
2021/08/19 05:05:35;;;;;;;7.47;3.67;;;;;;;18.60;62.39;100297.11;1708590;82;21106;-64
2021/08/19 05:08:02;;;;;;;7.33;4.47;;;;;;;18.64;62.33;100293.08;1703697;81;21095;-63
2021/08/19 05:10:29;;;;;;;10.68;6.78;;;;;;;18.68;62.71;100283.73;1726182;81;21485;-63
2021/08/19 05:12:55;;;;;;;7.90;4.40;;;;;;;18.74;63.82;100281.70;1720738;81;21052;-64
2021/08/19 05:15:22;;;;;;;6.90;4.05;;;;;;;18.81;64.69;100289.81;1728203;82;21919;-66
2021/08/19 05:17:48;;;;;;;7.87;3.47;;;;;;;18.87;65.85;100289.61;1720740;81;21030;-63
2021/08/19 05:20:16;;;;;;;6.17;3.67;;;;;;;18.95;65.65;100302.88;1720401;81;21052;-63
2021/08/19 05:22:44;;;;;;;7.08;3.10;;;;;;;18.99;65.54;100308.17;1720835;81;21124;-63
2021/08/19 05:25:11;;;;;;;5.67;3.50;;;;;;;18.97;65.74;100309.37;1717772;81;20972;-63
2021/08/19 05:27:38;;;;;;;6.90;4.15;;;;;;;18.90;66.07;100300.75;1731187;81;21347;-63
2021/08/19 05:30:07;;;;;;;5.95;4.03;;;;;;;18.86;65.79;100296.80;1729283;82;21012;-62
2021/08/19 05:32:34;;;;;;;5.90;3.47;;;;;;;18.86;66.58;100295.46;1725398;81;21021;-64
2021/08/19 05:35:02;;;;;;;7.90;3.98;;;;;;;18.89;66.36;100299.59;1705553;82;22467;-64
2021/08/19 05:37:29;;;;;;;8.45;4.22;;;;;;;18.97;65.99;100302.70;1723383;81;21017;-63
2021/08/19 05:39:55;;;;;;;8.23;3.72;;;;;;;19.03;66.36;100296.15;1729137;81;21550;-63
2021/08/19 05:42:22;;;;;;;7.35;3.65;;;;;;;19.11;65.44;100300.56;1704659;82;21047;-63
2021/08/19 05:44:48;;;;;;;8.05;3.70;;;;;;;19.19;65.20;100294.34;1730821;81;21079;-63
2021/08/19 05:47:15;;;;;;;9.75;3.40;;;;;;;19.22;64.41;100292.64;1704847;82;21059;-64
2021/08/19 05:49:43;;;;;;;7.95;4.17;;;;;;;19.30;64.68;100285.38;1728992;81;21050;-66
2021/08/19 05:52:12;;;;;;;8.73;3.85;;;;;;;19.42;64.70;100288.95;1733138;80;21069;-67
2021/08/19 05:54:38;;;;;;;5.92;3.60;;;;;;;19.57;64.53;100280.91;1739803;80;21366;-64
2021/08/19 05:57:05;;;;;;;8.03;4.40;;;;;;;19.70;63.73;100289.62;1739824;80;20999;-66
2021/08/19 05:59:31;;;;;;;9.58;4.72;;;;;;;19.73;63.54;100279.91;1740753;80;21138;-65
2021/08/19 06:01:57;;;;;;;7.70;5.05;;;;;;;19.75;64.31;100286.73;1738046;80;21096;-64
2021/08/19 06:04:24;;;;;;;8.65;5.67;;;;;;;19.77;64.36;100278.55;1710338;80;21096;-66
2021/08/19 06:07:54;;;;;;;7.75;4.75;;;;;;;19.85;64.31;100281.12;1793506;78;22911;-64
2021/08/19 06:10:20;;;;;;;8.15;4.55;;;;;;;19.88;63.25;100280.75;1764718;78;20998;-64
2021/08/19 06:12:46;;;;;;;7.60;4.50;;;;;;;19.96;62.83;100287.84;1765339;78;21212;-64
2021/08/19 06:15:13;;;;;;;8.53;3.80;;;;;;;19.99;62.98;100285.63;1708235;81;21050;-67
2021/08/19 06:17:40;;;;;;;7.00;4.25;;;;;;;19.98;63.30;100289.30;1700881;81;21045;-66
2021/08/19 06:20:10;;;;;;;10.23;4.97;;;;;;;20.03;61.95;100284.73;1734129;81;21100;-65
2021/08/19 06:22:36;;;;;;;6.08;3.72;;;;;;;20.06;62.75;100296.39;1734522;81;21130;-64
2021/08/19 06:25:05;;;;;;;7.47;3.80;;;;;;;20.08;63.39;100293.53;1735716;81;21615;-64
2021/08/19 06:27:32;;;;;;;6.47;4.00;;;;;;;20.13;63.19;100297.80;1731488;81;21139;-65
2021/08/19 06:30:00;;;;;;;6.85;4.00;;;;;;;20.20;61.87;100296.84;1731674;80;21497;-64
2021/08/19 06:32:27;;;;;;;7.45;3.92;;;;;;;20.30;61.71;100305.91;1717033;82;21071;-65
2021/08/19 06:34:54;;;;;;;6.95;4.20;;;;;;;20.34;62.15;100306.34;1686956;82;21509;-64
2021/08/19 06:37:20;;;;;;;8.65;3.67;;;;;;;20.40;60.34;100299.74;1696222;82;21132;-66
2021/08/19 06:39:47;;;;;;;6.92;3.10;;;;;;;20.45;59.54;100299.18;1720301;81;21098;-65
2021/08/19 06:42:13;;;;;;;6.12;2.62;;;;;;;20.47;55.54;100302.48;1721812;81;21019;-65
2021/08/19 06:44:39;;;;;;;5.70;2.50;;;;;;;20.47;53.85;100305.16;1717495;81;21086;-63
2021/08/19 06:47:06;;;;;;;6.47;2.58;;;;;;;20.47;54.41;100309.69;1720723;82;21290;-65
2021/08/19 06:49:34;;;;;;;7.80;2.20;;;;;;;20.52;54.74;100312.09;1714924;81;21135;-65
2021/08/19 06:52:01;;;;;;;5.60;2.55;;;;;;;20.58;53.92;100306.00;1717232;81;21675;-65
2021/08/19 06:54:29;;;;;;;7.97;3.30;;;;;;;20.60;53.46;100303.95;1713352;82;21034;-65
2021/08/19 06:56:56;;;;;;;4.67;2.55;;;;;;;20.64;54.35;100306.28;1711094;82;21667;-65
2021/08/19 06:59:22;;;;;;;5.78;2.92;;;;;;;20.66;53.83;100305.09;1712321;82;21046;-64
2021/08/19 07:01:49;;;;;;;6.03;3.10;;;;;;;20.69;53.89;100301.19;1682690;82;22437;-67
2021/08/19 07:04:15;;;;;;;6.60;2.98;;;;;;;20.75;54.57;100301.77;1713421;81;21071;-65
2021/08/19 07:06:42;;;;;;;6.25;2.83;;;;;;;20.82;53.29;100299.98;1705540;81;21066;-67
2021/08/19 07:09:08;;;;;;;9.90;3.20;;;;;;;20.81;53.87;100294.30;1697499;81;21035;-65
2021/08/19 07:11:37;;;;;;;12.05;4.65;;;;;;;20.83;53.92;100297.64;1697442;83;21088;-66
2021/08/19 07:14:04;;;;;;;4.83;2.47;;;;;;;20.85;56.25;100290.76;1679465;83;21223;-66
2021/08/19 07:16:30;;;;;;;8.55;3.83;;;;;;;20.94;55.96;100283.72;1701370;81;21142;-67
2021/08/19 07:18:58;;;;;;;8.18;3.33;;;;;;;21.11;56.25;100294.14;1742191;80;21631;-65
2021/08/19 07:21:24;;;;;;;6.72;3.35;;;;;;;21.17;56.42;100296.57;1732855;80;21383;-68
2021/08/19 07:23:52;;;;;;;8.45;4.00;;;;;;;21.20;56.02;100289.47;1765836;79;21020;-67
2021/08/19 07:26:22;;;;;;;7.25;3.37;;;;;;;21.27;55.77;100292.52;1754439;80;21119;-68
2021/08/19 07:28:53;;;;;;;7.05;3.50;;;;;;;21.37;55.23;100298.02;1755470;79;21090;-64
2021/08/19 07:31:21;;;;;;;6.08;3.08;;;;;;;21.36;54.54;100305.75;1727405;80;21103;-64
2021/08/19 07:33:48;;;;;;;5.10;3.50;;;;;;;21.34;53.55;100304.61;1752017;79;21554;-65
2021/08/19 07:36:14;;;;;;;6.05;3.58;;;;;;;21.32;53.40;100305.33;1756272;79;21051;-65
2021/08/19 07:38:41;;;;;;;6.75;3.33;;;;;;;21.31;53.85;100299.13;1741774;80;21925;-63
2021/08/19 07:41:08;;;;;;;5.45;2.77;;;;;;;21.38;53.55;100301.03;1742352;80;21082;-65
2021/08/19 07:43:34;;;;;;;5.65;2.75;;;;;;;21.38;52.46;100296.49;1756468;79;22619;-67
2021/08/19 07:46:00;;;;;;;6.58;3.20;;;;;;;21.41;52.64;100296.62;1754742;79;21083;-65
2021/08/19 07:48:27;;;;;;;9.45;4.20;;;;;;;21.47;53.25;100295.88;1758684;79;20964;-65
2021/08/19 07:50:53;;;;;;;8.15;4.00;;;;;;;21.52;53.72;100298.27;1759685;80;21750;-65
2021/08/19 07:53:21;;;;;;;7.62;4.30;;;;;;;21.54;53.13;100299.94;1760401;80;21058;-64
2021/08/19 07:55:47;;;;;;;8.08;3.95;;;;;;;21.48;53.48;100288.14;1754123;80;21058;-63
2021/08/19 07:58:14;;;;;;;7.08;3.60;;;;;;;21.46;53.94;100291.51;1756515;79;21035;-64
2021/08/19 08:00:41;;;;;;;6.35;3.55;;;;;;;21.49;53.88;100290.63;1759208;80;21062;-66
2021/08/19 08:03:08;;;;;;;7.97;3.30;;;;;;;21.55;53.28;100290.86;1760576;79;21167;-65
2021/08/19 08:05:35;;;;;;;6.00;3.33;;;;;;;21.61;52.89;100292.77;1742511;80;21027;-64
2021/08/19 08:08:04;;;;;;;8.83;4.33;;;;;;;21.60;53.03;100287.93;1767755;79;21208;-65
2021/08/19 08:10:31;;;;;;;8.65;3.92;;;;;;;21.63;53.10;100298.74;1745226;80;21050;-63
2021/08/19 08:12:58;;;;;;;7.00;3.40;;;;;;;21.69;52.72;100307.33;1771787;79;20991;-66
2021/08/19 08:15:26;;;;;;;7.80;4.42;;;;;;;21.69;53.18;100306.81;1771629;80;21817;-64
2021/08/19 08:17:53;;;;;;;7.25;3.50;;;;;;;21.70;53.13;100304.95;1757768;80;21022;-64
2021/08/19 08:20:19;;;;;;;10.60;3.72;;;;;;;21.73;53.10;100301.88;1768188;80;21075;-65
2021/08/19 08:22:48;;;;;;;10.00;3.52;;;;;;;21.79;51.56;100296.27;1765953;79;21058;-64
2021/08/19 08:25:15;;;;;;;7.72;3.58;;;;;;;21.76;52.66;100287.28;1767465;80;21043;-67
2021/08/19 08:28:10;;;;;;;8.70;3.58;;;;;;;21.77;53.17;100288.92;1702969;82;21405;-66
2021/08/19 08:30:39;;;;;;;7.97;3.27;;;;;;;21.78;52.74;100286.56;1760702;80;21050;-66
2021/08/19 08:33:07;;;;;;;6.17;3.15;;;;;;;21.79;52.73;100289.05;1773668;80;21066;-65
2021/08/19 08:35:37;;;;;;;7.12;3.50;;;;;;;21.81;52.32;100283.49;1706485;82;21035;-66
2021/08/19 08:38:06;;;;;;;6.42;3.40;;;;;;;21.82;51.77;100280.62;1763864;80;21054;-63
2021/08/19 08:40:34;;;;;;;6.70;3.77;;;;;;;21.80;51.92;100285.33;1767644;80;21154;-64
2021/08/19 08:43:04;;;;;;;9.88;4.28;;;;;;;21.78;52.13;100285.23;1745372;80;20995;-64
2021/08/19 08:45:34;;;;;;;8.45;4.15;;;;;;;21.74;52.71;100273.24;1765479;80;21030;-65
2021/08/19 08:47:59;;;;;;;7.75;3.42;;;;;;;21.70;51.93;100265.62;1763399;80;21089;-63
2021/08/19 08:50:27;;;;;;;5.33;2.87;;;;;;;21.68;50.54;100258.28;1742189;80;21838;-65
2021/08/19 08:52:57;;;;;;;8.75;3.50;;;;;;;21.61;49.80;100260.11;1763187;80;21883;-64
2021/08/19 08:55:25;;;;;;;6.62;3.55;;;;;;;21.55;50.39;100259.55;1772140;80;20939;-62
2021/08/19 08:57:54;;;;;;;7.33;3.60;;;;;;;21.53;51.90;100264.29;1737551;80;21046;-63
2021/08/19 09:00:22;;;;;;;8.15;3.25;;;;;;;21.53;52.03;100270.98;1761435;80;21051;-63
2021/08/19 09:02:48;;;;;;;7.17;3.90;;;;;;;21.57;52.48;100270.92;1763753;80;21109;-66
2021/08/19 09:05:22;;;;;;;8.60;3.40;;;;;;;21.66;51.75;100268.38;1766169;80;21121;-64
2021/08/19 09:07:55;;;;;;;7.30;3.30;;;;;;;21.74;50.94;100263.87;1764929;80;21043;-65
2021/08/19 09:10:31;;;;;;;8.57;4.17;;;;;;;21.95;52.01;100266.44;1763319;79;21075;-66
2021/08/19 09:13:06;;;;;;;8.60;4.37;;;;;;;21.95;52.01;100266.44;1768549;80;21576;-64
2021/08/19 09:15:33;;;;;;;;;;;;;;;22.07;50.73;100255.96;1764943;80;21549;-67
2021/08/19 09:18:01;;;;;;;6.37;3.35;;;;;;;22.20;49.59;100257.34;1768969;80;21110;-65
2021/08/19 09:20:40;;;;;;;9.83;3.33;;;;;;;22.24;50.10;100251.91;1773466;80;21502;-65
2021/08/19 09:23:12;;;;;;;9.05;3.40;;;;;;;22.40;50.02;100250.72;1768845;80;21576;-64
2021/08/19 09:25:40;;;;;;;9.98;3.65;;;;;;;22.55;48.55;100245.17;1707561;83;21070;-65
2021/08/19 09:28:30;;;;;;;8.10;3.83;;;;;;;22.63;48.33;100239.61;1707273;82;21711;-64
2021/08/19 09:31:07;;;;;;;5.87;2.90;;;;;;;22.73;48.11;100239.70;1713562;82;21174;-62
2021/08/19 09:33:41;;;;;;;7.53;3.47;;;;;;;22.77;47.49;100236.94;1749331;80;21117;-65
2021/08/19 09:36:08;;;;;;;7.37;3.58;;;;;;;22.74;44.36;100233.31;1761375;80;21351;-66
2021/08/19 09:38:41;;;;;;;6.70;3.87;;;;;;;22.65;44.35;100232.70;1762966;80;22535;-65
2021/08/19 09:41:17;;;;;;;6.00;3.83;;;;;;;22.58;45.08;100223.84;1740979;80;21387;-63
2021/08/19 09:43:50;;;;;;;8.38;3.33;;;;;;;22.48;45.07;100227.41;1763452;79;22194;-65
2021/08/19 09:46:37;;;;;;;5.92;3.17;;;;;;;22.41;45.81;100226.09;1768261;79;21458;-62
2021/08/19 09:49:30;;;;;;;6.28;3.47;;;;;;;22.39;46.02;100234.34;1767580;79;21619;-65
2021/08/19 09:52:05;;;;;;;6.20;3.75;;;;;;;22.39;44.93;100236.17;1758425;79;21090;-63
2021/08/19 09:54:34;;;;;;;6.78;3.60;;;;;;;22.39;44.17;100233.50;1766754;80;21019;-63
2021/08/19 09:57:03;;;;;;;8.38;4.37;;;;;;;22.37;45.29;100243.60;1739593;80;21083;-64
2021/08/19 09:59:37;;;;;;;7.03;3.95;;;;;;;22.38;44.74;100240.72;1741265;80;21102;-63
2021/08/19 10:02:09;;;;;;;5.97;3.67;;;;;;;22.41;45.36;100236.82;1770003;80;21054;-67
2021/08/19 10:04:36;;;;;;;6.97;3.80;;;;;;;22.44;44.95;100243.09;1767392;80;21047;-64
2021/08/19 10:07:03;;;;;;;8.65;3.90;;;;;;;22.45;44.39;100236.19;1765492;80;21085;-64
2021/08/19 10:09:30;;;;;;;6.20;3.70;;;;;;;22.49;44.84;100247.32;1699208;82;21147;-64
2021/08/19 10:11:58;;;;;;;7.25;4.00;;;;;;;22.54;44.62;100246.72;1703308;82;21556;-64
2021/08/19 10:14:28;;;;;;;6.10;3.40;;;;;;;22.58;44.54;100246.11;1670298;83;21103;-64
2021/08/19 10:16:55;;;;;;;6.25;3.40;;;;;;;22.65;44.34;100240.75;1761599;80;21470;-64
2021/08/19 10:19:33;;;;;;;6.67;3.50;;;;;;;22.70;43.37;100242.30;1718251;82;21640;-65
2021/08/19 10:22:14;;;;;;;6.55;3.52;;;;;;;22.72;44.14;100245.59;1765361;80;21136;-65
2021/08/19 10:24:46;;;;;;;9.45;3.72;;;;;;;22.68;43.35;100252.41;1756499;80;21039;-63
2021/08/19 10:27:25;;;;;;;8.35;4.15;;;;;;;22.61;44.13;100242.17;1756555;79;21695;-65
2021/08/19 10:29:59;;;;;;;10.28;3.75;;;;;;;22.60;44.73;100241.88;1751703;80;21009;-66
2021/08/19 10:32:38;;;;;;;7.17;4.20;;;;;;;22.61;45.25;100243.02;1756411;80;21050;-64
2021/08/19 10:35:12;;;;;;;8.63;4.30;;;;;;;22.71;44.94;100246.64;1756919;80;21243;-64
2021/08/19 10:37:54;;;;;;;8.43;3.93;;;;;;;22.82;43.74;100243.31;1750024;80;21047;-64
2021/08/19 10:40:34;;;;;;;5.30;3.00;;;;;;;22.89;44.08;100233.92;1756411;80;21023;-64
2021/08/19 10:43:33;;;;;;;6.78;3.52;;;;;;;22.94;44.24;100234.13;1758797;79;21082;-68
2021/08/19 10:46:11;;;;;;;6.50;3.37;;;;;;;22.99;44.43;100241.56;1658675;84;21112;-63
2021/08/19 10:48:53;;;;;;;6.05;3.67;;;;;;;23.04;44.97;100240.94;1735535;80;21120;-67
2021/08/19 10:51:20;;;;;;;7.55;4.10;;;;;;;23.10;44.17;100243.65;1753399;80;21078;-65
2021/08/19 10:53:46;;;;;;;7.90;3.87;;;;;;;23.23;42.67;100242.78;1724018;81;21059;-64
2021/08/19 10:56:41;;;;;;;7.25;4.30;;;;;;;23.31;42.84;100247.93;1755713;79;21066;-63
2021/08/19 10:59:32;;;;;;;7.20;3.47;;;;;;;23.37;42.79;100236.89;1757500;80;21082;-65
2021/08/19 11:02:00;;;;;;;7.35;4.00;;;;;;;23.35;42.16;100233.56;1761359;80;21091;-63
2021/08/19 11:04:41;;;;;;;8.25;4.00;;;;;;;23.31;42.63;100234.51;1758201;79;21683;-65
2021/08/19 11:07:09;;;;;;;7.05;3.75;;;;;;;23.31;43.13;100232.34;1757643;80;21050;-63
2021/08/19 11:09:37;;;;;;;6.03;3.30;;;;;;;23.34;42.44;100234.63;1766202;80;21016;-63
2021/08/19 11:12:06;;;;;;;6.65;3.67;;;;;;;23.40;42.54;100226.23;1766610;80;21019;-62
2021/08/19 11:14:33;;;;;;;8.73;3.70;;;;;;;23.47;42.52;100223.84;1761292;80;21114;-65
2021/08/19 11:17:01;;;;;;;7.33;3.80;;;;;;;23.53;42.54;100228.88;1743387;80;21023;-64
2021/08/19 11:19:30;;;;;;;7.90;4.25;;;;;;;23.59;43.26;100220.47;1766460;80;21004;-66
2021/08/19 11:22:02;;;;;;;8.10;3.85;;;;;;;23.61;41.97;100218.42;1776946;80;21010;-66
2021/08/19 11:24:31;;;;;;;7.47;4.00;;;;;;;23.58;41.34;100226.91;1764762;80;21050;-65
2021/08/19 11:27:09;;;;;;;6.70;3.92;;;;;;;23.56;41.11;100217.19;1772915;80;21157;-64
2021/08/19 11:29:40;;;;;;;6.97;4.12;;;;;;;23.66;42.81;100214.58;1766567;80;21101;-63
2021/08/19 11:32:16;;;;;;;6.85;3.95;;;;;;;23.78;42.33;100213.39;1760693;80;22222;-67